createdAt,value
2022-11-10T00:00:44.751Z,60.45
2022-11-10T00:03:18.456Z,68.82
2022-11-10T00:05:49.404Z,69.58
2022-11-10T00:08:20.070Z,64.74
2022-11-10T00:11:11.416Z,61.23
2022-11-10T00:13:58.924Z,57.17
2022-11-10T00:16:45.834Z,55.30
2022-11-10T00:19:15.164Z,57.04
2022-11-10T00:21:44.317Z,60.61
2022-11-10T00:24:12.109Z,68.12
2022-11-10T00:26:42.452Z,69.46
2022-11-10T00:29:10.680Z,65.00
2022-11-10T00:31:41.545Z,61.03
2022-11-10T00:34:16.894Z,55.95
2022-11-10T00:36:46.264Z,55.31
2022-11-10T00:39:22.983Z,58.25
2022-11-10T00:41:50.952Z,60.00
2022-11-10T00:44:22.765Z,61.17
2022-11-10T00:46:51.473Z,67.08
2022-11-10T00:49:21.300Z,69.25
2022-11-10T00:52:03.400Z,64.18
2022-11-10T00:54:31.823Z,60.06
2022-11-10T00:57:00.807Z,54.86
2022-11-10T00:59:32.828Z,54.31
2022-11-10T01:02:00.609Z,57.15
2022-11-10T01:04:29.527Z,59.10
2022-11-10T01:06:57.590Z,67.04
2022-11-10T01:09:25.855Z,67.85
2022-11-10T01:11:58.604Z,64.04
2022-11-10T01:14:26.502Z,60.64
2022-11-10T01:16:55.822Z,59.70
2022-11-10T01:19:24.369Z,55.80
2022-11-10T01:21:53.058Z,54.81
2022-11-10T01:24:24.219Z,57.02
2022-11-10T01:26:55.833Z,59.26
2022-11-10T01:29:24.324Z,59.63
2022-11-10T01:31:52.145Z,68.17
2022-11-10T01:34:20.499Z,72.79
2022-11-10T01:36:54.972Z,67.09
2022-11-10T01:39:28.280Z,63.56
2022-11-10T01:41:56.090Z,62.38
2022-11-10T01:44:26.547Z,60.95
2022-11-10T01:46:55.389Z,59.65
2022-11-10T01:49:27.555Z,55.18
2022-11-10T01:52:08.443Z,55.13
2022-11-10T01:54:46.501Z,57.51
2022-11-10T01:57:20.434Z,59.67
2022-11-10T01:59:52.109Z,64.95
2022-11-10T02:02:30.823Z,68.43
2022-11-10T02:05:03.905Z,65.20
2022-11-10T02:07:36.969Z,62.05
2022-11-10T02:10:16.473Z,58.31
2022-11-10T02:12:47.692Z,53.36
2022-11-10T02:15:19.807Z,54.60
2022-11-10T02:17:54.629Z,58.59
2022-11-10T02:20:23.508Z,60.46
2022-11-10T02:22:53.179Z,69.56
2022-11-10T02:25:27.649Z,70.20
2022-11-10T02:27:57.142Z,65.25
2022-11-10T02:30:27.815Z,61.22
2022-11-10T02:32:56.711Z,56.43
2022-11-10T02:35:25.344Z,57.12
2022-11-10T02:37:53.910Z,57.87
2022-11-10T02:40:22.049Z,60.29
2022-11-10T02:42:51.091Z,66.41
2022-11-10T02:45:24.308Z,69.14
2022-11-10T02:47:52.148Z,64.72
2022-11-10T02:50:20.487Z,61.47
2022-11-10T02:52:53.980Z,57.01
2022-11-10T02:55:25.852Z,55.91
2022-11-10T02:57:54.055Z,57.94
2022-11-10T03:00:23.535Z,59.48
2022-11-10T03:03:05.191Z,65.91
2022-11-10T03:05:35.358Z,69.55
2022-11-10T03:08:06.083Z,64.62
2022-11-10T03:10:35.536Z,60.73
2022-11-10T03:13:07.670Z,57.05
2022-11-10T03:15:37.884Z,56.88
2022-11-10T03:18:09.783Z,58.50
2022-11-10T03:20:38.090Z,60.52
2022-11-10T03:23:08.339Z,69.74
2022-11-10T03:25:39.507Z,71.45
2022-11-10T03:28:09.458Z,66.51
2022-11-10T03:30:40.118Z,62.99
2022-11-10T03:33:10.832Z,60.61
2022-11-10T03:35:40.463Z,56.93
2022-11-10T03:38:09.256Z,56.34
2022-11-10T03:40:56.874Z,59.06
2022-11-10T03:43:25.977Z,60.60
2022-11-10T03:45:53.922Z,62.54
2022-11-10T03:48:24.677Z,71.76
2022-11-10T03:50:54.588Z,69.53
2022-11-10T03:53:22.743Z,64.99
2022-11-10T03:55:51.303Z,61.86
2022-11-10T03:58:20.601Z,59.70
2022-11-10T04:00:48.608Z,54.80
2022-11-10T04:03:18.175Z,55.07
2022-11-10T04:06:05.673Z,58.24
2022-11-10T04:08:53.997Z,59.71
2022-11-10T04:11:46.176Z,68.83
2022-11-10T04:14:37.697Z,68.43
2022-11-10T04:17:07.557Z,64.12
2022-11-10T04:19:38.908Z,61.27
2022-11-10T04:22:07.184Z,57.23
2022-11-10T04:24:39.141Z,56.54
2022-11-10T04:27:08.496Z,57.90
2022-11-10T04:29:40.060Z,58.07
2022-11-10T04:32:07.895Z,61.03
2022-11-10T04:34:35.735Z,68.16
2022-11-10T04:37:04.039Z,72.25
2022-11-10T04:39:32.218Z,68.86
2022-11-10T04:42:02.695Z,63.53
2022-11-10T04:44:31.918Z,60.22
2022-11-10T04:47:00.019Z,55.74
2022-11-10T04:49:29.055Z,55.17
2022-11-10T04:51:57.017Z,57.47
2022-11-10T04:54:27.887Z,59.49
2022-11-10T04:56:56.055Z,68.19
2022-11-10T04:59:24.542Z,70.47
2022-11-10T05:01:55.771Z,65.57
2022-11-10T05:04:26.061Z,61.88
2022-11-10T05:06:55.412Z,57.42
2022-11-10T05:09:25.423Z,54.69
2022-11-10T05:11:53.859Z,56.25
2022-11-10T05:14:22.719Z,60.38
2022-11-10T05:16:50.641Z,68.33
2022-11-10T05:19:21.557Z,69.40
2022-11-10T05:21:49.896Z,63.87
2022-11-10T05:24:19.373Z,61.33
2022-11-10T05:26:47.091Z,56.43
2022-11-10T05:29:15.343Z,56.11
2022-11-10T05:31:49.088Z,57.43
2022-11-10T05:34:22.710Z,58.94
2022-11-10T05:36:51.520Z,62.12
2022-11-10T05:39:19.619Z,71.78
2022-11-10T05:41:47.375Z,71.45
2022-11-10T05:44:16.071Z,65.20
2022-11-10T05:46:48.889Z,61.29
2022-11-10T05:49:18.385Z,55.99
2022-11-10T05:51:46.818Z,55.48
2022-11-10T05:54:16.442Z,56.96
2022-11-10T05:56:44.284Z,60.20
2022-11-10T05:59:12.869Z,66.35
2022-11-10T06:01:41.311Z,68.80
2022-11-10T06:04:09.719Z,64.69
2022-11-10T06:06:38.863Z,59.88
2022-11-10T06:09:08.248Z,54.12
2022-11-10T06:11:36.904Z,54.71
2022-11-10T06:14:06.059Z,56.36
2022-11-10T06:16:38.144Z,59.52
2022-11-10T06:19:09.286Z,61.23
2022-11-10T06:24:23.048Z,71.12
2022-11-10T06:26:52.123Z,66.88
2022-11-10T06:29:26.563Z,63.43
2022-11-10T06:31:55.920Z,60.33
2022-11-10T06:34:24.900Z,56.43
2022-11-10T06:36:52.817Z,55.53
2022-11-10T06:39:22.085Z,60.22
2022-11-10T06:41:51.909Z,67.52
2022-11-10T06:44:20.188Z,66.67
2022-11-10T06:46:48.236Z,62.02
2022-11-10T06:49:16.263Z,59.83
2022-11-10T06:51:45.090Z,54.74
2022-11-10T06:54:16.088Z,54.99
2022-11-10T06:56:45.201Z,58.10
2022-11-10T06:59:15.140Z,60.12
2022-11-10T07:01:48.807Z,67.26
2022-11-10T07:04:20.376Z,69.24
2022-11-10T07:06:53.003Z,64.03
2022-11-10T07:09:22.583Z,59.79
2022-11-10T07:11:52.109Z,54.62
2022-11-10T07:14:21.819Z,55.84
2022-11-10T07:16:52.174Z,58.42
2022-11-10T07:19:20.917Z,60.57
2022-11-10T07:21:50.175Z,65.78
2022-11-10T07:24:21.730Z,68.91
2022-11-10T07:26:52.229Z,65.45
2022-11-10T07:29:21.046Z,62.24
2022-11-10T07:31:49.290Z,56.78
2022-11-10T07:34:17.388Z,55.64
2022-11-10T07:36:45.543Z,57.88
2022-11-10T07:39:16.970Z,59.48
2022-11-10T07:41:48.738Z,68.47
2022-11-10T07:44:19.395Z,70.39
2022-11-10T07:46:47.800Z,64.59
2022-11-10T07:49:16.197Z,62.14
2022-11-10T07:51:52.332Z,60.23
2022-11-10T07:54:22.398Z,55.14
2022-11-10T07:56:57.084Z,57.16
2022-11-10T07:59:25.090Z,58.87
2022-11-10T08:01:55.738Z,60.00
2022-11-10T08:04:23.861Z,68.43
2022-11-10T08:06:52.096Z,69.41
2022-11-10T08:09:20.624Z,63.92
2022-11-10T08:11:49.271Z,60.69
2022-11-10T08:14:17.500Z,56.73
2022-11-10T08:16:46.402Z,55.47
2022-11-10T08:19:14.728Z,57.22
2022-11-10T08:21:43.877Z,59.62
2022-11-10T08:24:12.469Z,66.57
2022-11-10T08:26:40.978Z,69.93
2022-11-10T08:29:20.329Z,67.50
2022-11-10T08:31:52.332Z,64.32
2022-11-10T08:34:23.275Z,60.38
2022-11-10T08:36:54.307Z,55.83
2022-11-10T08:39:37.997Z,55.53
2022-11-10T08:42:09.904Z,57.37
2022-11-10T08:44:40.493Z,60.48
2022-11-10T08:47:10.727Z,69.14
2022-11-10T08:49:40.560Z,70.45
2022-11-10T08:52:10.761Z,65.60
2022-11-10T08:54:40.134Z,61.90
2022-11-10T08:57:09.698Z,60.10
2022-11-10T08:59:38.210Z,55.33
2022-11-10T09:02:10.640Z,54.05
2022-11-10T09:04:40.148Z,57.48
2022-11-10T09:07:09.098Z,59.84
2022-11-10T09:09:36.891Z,61.76
2022-11-10T09:12:07.807Z,71.31
2022-11-10T09:14:43.100Z,72.52
2022-11-10T09:17:12.916Z,67.04
2022-11-10T09:19:41.663Z,63.45
2022-11-10T09:22:10.844Z,61.21
2022-11-10T09:24:41.911Z,56.43
2022-11-10T09:27:10.042Z,55.55
2022-11-10T09:29:39.021Z,57.26
2022-11-10T09:32:07.589Z,59.01
2022-11-10T09:34:36.768Z,64.71
2022-11-10T09:37:05.115Z,69.36
2022-11-10T09:39:40.172Z,66.94
2022-11-10T09:42:30.484Z,63.03
2022-11-10T09:45:18.006Z,60.14
2022-11-10T09:48:02.017Z,56.01
2022-11-10T09:50:49.621Z,55.38
2022-11-10T09:53:31.225Z,58.62
2022-11-10T09:56:05.985Z,60.90
2022-11-10T09:58:44.899Z,68.83
2022-11-10T10:01:26.779Z,70.01
2022-11-10T10:04:13.006Z,64.81
2022-11-10T10:07:11.755Z,60.88
2022-11-10T10:09:42.183Z,55.18
2022-11-10T10:12:25.892Z,55.48
2022-11-10T10:15:26.045Z,58.72
2022-11-10T10:18:23.955Z,60.80
2022-11-10T10:21:22.970Z,70.74
2022-11-10T10:24:09.429Z,70.13
2022-11-10T10:26:58.009Z,64.59
2022-11-10T10:29:43.517Z,62.20
2022-11-10T10:32:15.083Z,55.68
2022-11-10T10:34:45.767Z,55.99
2022-11-10T10:37:41.556Z,59.36
2022-11-10T10:40:21.790Z,66.21
2022-11-10T10:42:52.027Z,67.23
2022-11-10T10:45:31.286Z,63.45
2022-11-10T10:48:01.873Z,60.69
2022-11-10T10:50:37.101Z,55.78
2022-11-10T10:53:19.555Z,55.68
2022-11-10T10:56:06.161Z,58.01
2022-11-10T10:58:54.365Z,60.60
2022-11-10T11:01:33.037Z,68.48
2022-11-10T11:04:28.085Z,69.82
2022-11-10T11:07:23.879Z,64.94
2022-11-10T11:09:52.801Z,62.40
2022-11-10T11:12:21.836Z,60.05
2022-11-10T11:14:49.784Z,56.00
2022-11-10T11:17:25.198Z,56.32
2022-11-10T11:20:00.001Z,58.51
2022-11-10T11:22:57.450Z,64.23
2022-11-10T11:25:37.834Z,65.97
2022-11-10T11:28:30.262Z,62.40
2022-11-10T11:31:31.114Z,60.41
2022-11-10T11:34:37.917Z,54.83
2022-11-10T11:37:43.072Z,57.81
2022-11-10T11:40:30.126Z,60.21
2022-11-10T11:43:55.104Z,67.79
2022-11-10T11:47:09.979Z,67.61
2022-11-10T11:50:07.797Z,63.36
2022-11-10T11:52:54.652Z,60.58
2022-11-10T11:55:59.125Z,56.19
2022-11-10T11:58:59.576Z,56.39
2022-11-10T12:01:33.728Z,59.98
2022-11-10T12:04:37.240Z,68.35
2022-11-10T12:07:36.035Z,67.63
2022-11-10T12:10:42.862Z,61.96
2022-11-10T12:14:08.587Z,57.61
2022-11-10T12:16:39.515Z,55.78
2022-11-10T12:19:35.928Z,58.89
2022-11-10T12:22:44.395Z,61.55
2022-11-10T12:25:49.727Z,70.25
2022-11-10T12:28:52.824Z,65.09
2022-11-10T12:31:24.746Z,60.24
2022-11-10T12:34:48.866Z,55.52
2022-11-10T12:37:31.404Z,53.99
2022-11-10T12:40:15.583Z,56.96
2022-11-10T12:42:58.477Z,61.71
2022-11-10T12:45:33.812Z,71.04
2022-11-10T12:48:05.321Z,69.77
2022-11-10T12:50:53.179Z,63.40
2022-11-10T12:53:47.054Z,60.91
2022-11-10T12:56:30.565Z,55.85
2022-11-10T12:59:38.037Z,56.97
2022-11-10T13:03:01.066Z,58.97
2022-11-10T13:05:42.716Z,69.94
2022-11-10T13:08:35.912Z,66.73
2022-11-10T13:11:18.862Z,62.87
2022-11-10T13:14:05.260Z,59.53
2022-11-10T13:16:42.945Z,55.20
2022-11-10T13:19:33.737Z,57.36
2022-11-10T13:22:01.635Z,59.54
2022-11-10T13:24:34.663Z,68.15
2022-11-10T13:27:46.756Z,68.96
2022-11-10T13:30:49.558Z,65.42
2022-11-10T13:33:39.216Z,60.65
2022-11-10T13:36:13.178Z,55.61
2022-11-10T13:38:45.762Z,56.91
2022-11-10T13:41:25.144Z,60.91
2022-11-10T13:43:57.937Z,67.25
2022-11-10T13:46:45.783Z,63.99
2022-11-10T13:49:38.392Z,61.26
2022-11-10T13:52:23.052Z,55.51
2022-11-10T13:55:14.742Z,58.79
2022-11-10T13:58:07.680Z,60.47
2022-11-10T14:00:39.563Z,68.15
2022-11-10T14:03:46.639Z,69.06
2022-11-10T14:06:29.464Z,63.49
2022-11-10T14:09:06.937Z,60.58
2022-11-10T14:11:50.127Z,55.92
2022-11-10T14:14:36.841Z,57.12
2022-11-10T14:17:24.125Z,61.34
2022-11-10T14:19:53.308Z,65.86
2022-11-10T14:22:42.770Z,65.92
2022-11-10T14:25:43.006Z,62.95
2022-11-10T14:28:34.178Z,60.00
2022-11-10T14:31:02.426Z,56.26
2022-11-10T14:33:30.831Z,57.04
2022-11-10T14:36:09.005Z,61.39
2022-11-10T14:38:45.333Z,66.98
2022-11-10T14:41:21.879Z,67.07
2022-11-10T14:44:13.233Z,64.04
2022-11-10T14:46:43.255Z,62.72
2022-11-10T14:49:23.076Z,60.89
2022-11-10T14:52:00.190Z,58.08
2022-11-10T14:54:29.984Z,56.37
2022-11-10T14:56:57.824Z,58.63
2022-11-10T14:59:29.040Z,60.70
2022-11-10T15:02:04.635Z,68.13
2022-11-10T15:04:37.214Z,65.99
2022-11-10T15:07:06.802Z,64.01
2022-11-10T15:09:36.014Z,61.22
2022-11-10T15:12:04.264Z,56.77
2022-11-10T15:15:16.731Z,56.74
2022-11-10T15:17:53.719Z,61.44
2022-11-10T15:20:41.872Z,67.79
2022-11-10T15:23:37.628Z,66.86
2022-11-10T15:26:16.302Z,63.28
2022-11-10T15:28:47.841Z,60.86
2022-11-10T15:31:33.214Z,59.66
2022-11-10T15:34:05.746Z,55.87
2022-11-10T15:36:41.469Z,57.94
2022-11-10T15:39:13.130Z,60.18
2022-11-10T15:41:50.286Z,65.19
2022-11-10T15:44:29.020Z,67.05
2022-11-10T15:46:59.647Z,62.33
2022-11-10T15:49:37.576Z,60.03
2022-11-10T15:52:27.231Z,55.76
2022-11-10T15:54:55.921Z,57.62
2022-11-10T15:57:24.415Z,59.91
2022-11-10T15:59:53.788Z,67.63
2022-11-10T16:02:28.748Z,67.82
2022-11-10T16:05:00.036Z,63.42
2022-11-10T16:07:28.963Z,61.27
2022-11-10T16:10:01.047Z,57.10
2022-11-10T16:12:30.185Z,57.08
2022-11-10T16:14:59.758Z,60.02
2022-11-10T16:17:31.625Z,67.41
2022-11-10T16:20:01.233Z,68.38
2022-11-10T16:22:29.606Z,64.33
2022-11-10T16:24:57.713Z,61.67
2022-11-10T16:27:34.439Z,58.16
2022-11-10T16:30:03.032Z,59.44
2022-11-10T16:32:35.445Z,65.32
2022-11-10T16:35:06.860Z,66.37
2022-11-10T16:37:37.499Z,65.25
2022-11-10T16:40:21.249Z,62.94
2022-11-10T16:42:51.360Z,61.94
2022-11-10T16:45:30.845Z,60.34
2022-11-10T16:47:59.380Z,56.94
2022-11-10T16:50:34.823Z,59.12
2022-11-10T16:53:13.439Z,65.38
2022-11-10T16:55:47.201Z,67.07
2022-11-10T16:58:15.207Z,62.97
2022-11-10T17:00:47.877Z,62.75
2022-11-10T17:03:29.440Z,61.32
2022-11-10T17:06:02.036Z,57.99
2022-11-10T17:08:37.717Z,59.15
2022-11-10T17:11:07.840Z,62.67
2022-11-10T17:13:40.648Z,68.80
2022-11-10T17:16:25.495Z,66.00
2022-11-10T17:18:55.935Z,62.49
2022-11-10T17:21:32.536Z,62.49
2022-11-10T17:24:05.667Z,61.36
2022-11-10T17:26:34.541Z,60.14
2022-11-10T17:29:04.406Z,57.48
2022-11-10T17:31:32.648Z,58.58
2022-11-10T17:34:03.800Z,61.42
2022-11-10T17:36:34.585Z,66.57
2022-11-10T17:39:02.485Z,66.73
2022-11-10T17:41:31.932Z,64.27
2022-11-10T17:44:01.287Z,61.76
2022-11-10T17:46:29.102Z,60.17
2022-11-10T17:49:02.576Z,61.48
2022-11-10T17:51:33.790Z,61.56
2022-11-10T17:54:07.652Z,61.27
2022-11-10T17:56:46.840Z,60.76
2022-11-10T17:59:14.908Z,62.08
2022-11-10T18:01:43.118Z,61.46
2022-11-10T18:04:15.324Z,62.50
2022-11-10T18:06:45.479Z,62.83
2022-11-10T18:09:14.538Z,62.50
2022-11-10T18:11:42.788Z,62.52
2022-11-10T18:14:15.879Z,64.43
2022-11-10T18:16:53.054Z,63.96
2022-11-10T18:19:29.375Z,62.22
2022-11-10T18:22:01.513Z,61.99
2022-11-10T18:24:34.984Z,60.67
2022-11-10T18:27:02.915Z,59.31
2022-11-10T18:29:35.030Z,59.91
2022-11-10T18:32:05.028Z,64.21
2022-11-10T18:34:35.593Z,65.01
2022-11-10T18:37:20.070Z,64.01
2022-11-10T18:39:48.361Z,63.06
2022-11-10T18:42:21.852Z,61.59
2022-11-10T18:44:58.082Z,60.09
2022-11-10T18:47:27.694Z,60.67
2022-11-10T18:50:11.257Z,61.37
2022-11-10T18:52:41.167Z,62.01
2022-11-10T18:55:13.433Z,62.42
2022-11-10T18:57:44.660Z,61.30
2022-11-10T19:00:13.934Z,60.40
2022-11-10T19:02:50.208Z,58.32
2022-11-10T19:05:23.444Z,59.90
2022-11-10T19:07:53.489Z,64.67
2022-11-10T19:10:26.623Z,64.18
2022-11-10T19:13:00.213Z,61.75
2022-11-10T19:15:29.613Z,59.97
2022-11-10T19:18:00.976Z,57.70
2022-11-10T19:20:31.228Z,56.35
2022-11-10T19:23:03.643Z,58.44
2022-11-10T19:25:32.793Z,64.70
2022-11-10T19:28:05.101Z,64.91
2022-11-10T19:30:35.300Z,61.97
2022-11-10T19:33:03.108Z,58.10
2022-11-10T19:35:34.015Z,57.87
2022-11-10T19:38:02.418Z,59.04
2022-11-10T19:40:32.806Z,60.99
2022-11-10T19:43:01.156Z,66.13
2022-11-10T19:45:30.274Z,65.89
2022-11-10T19:47:59.680Z,62.64
2022-11-10T19:50:34.969Z,60.49
2022-11-10T19:53:04.544Z,57.05
2022-11-10T19:55:34.324Z,56.92
2022-11-10T19:58:02.586Z,61.00
2022-11-10T20:00:30.945Z,66.31
2022-11-10T20:02:58.891Z,65.61
2022-11-10T20:05:27.253Z,63.21
2022-11-10T20:08:16.085Z,60.89
2022-11-10T20:10:50.068Z,56.73
2022-11-10T20:13:19.747Z,56.80
2022-11-10T20:15:50.011Z,60.18
2022-11-10T20:18:17.920Z,65.26
2022-11-10T20:20:46.556Z,64.98
2022-11-10T20:23:16.393Z,61.07
2022-11-10T20:25:44.799Z,58.54
2022-11-10T20:28:15.137Z,60.10
2022-11-10T20:30:46.860Z,61.93
2022-11-10T20:33:19.674Z,65.34
2022-11-10T20:35:48.190Z,62.44
2022-11-10T20:38:20.004Z,58.59
2022-11-10T20:40:50.022Z,57.96
2022-11-10T20:43:18.576Z,62.49
2022-11-10T20:45:47.101Z,63.91
2022-11-10T20:48:18.352Z,61.00
2022-11-10T20:50:46.500Z,59.06
2022-11-10T20:53:14.823Z,61.35
2022-11-10T20:55:53.481Z,63.93
2022-11-10T20:58:21.954Z,63.00
2022-11-10T21:00:50.455Z,59.40
2022-11-10T21:03:19.301Z,59.04
2022-11-10T21:05:55.485Z,62.79
2022-11-10T21:08:27.125Z,64.38
2022-11-10T21:11:02.900Z,61.95
2022-11-10T21:13:32.260Z,60.91
2022-11-10T21:16:05.427Z,59.43
2022-11-10T21:18:37.647Z,59.87
2022-11-10T21:21:45.208Z,63.68
2022-11-10T21:24:14.611Z,62.76
2022-11-10T21:26:42.626Z,59.99
2022-11-10T21:29:11.787Z,60.08
2022-11-10T21:31:39.643Z,59.75
2022-11-10T21:34:07.868Z,60.27
2022-11-10T21:36:36.469Z,63.03
2022-11-10T21:39:08.292Z,62.52
2022-11-10T21:41:51.157Z,60.45
2022-11-10T21:44:22.284Z,59.64
2022-11-10T21:46:51.420Z,58.69
2022-11-10T21:49:22.635Z,61.92
2022-11-10T21:51:53.988Z,63.94
2022-11-10T21:54:26.538Z,62.61
2022-11-10T21:56:55.394Z,61.36
2022-11-10T21:59:24.643Z,59.39
2022-11-10T22:01:55.982Z,60.41
2022-11-10T22:04:25.045Z,63.78
2022-11-10T22:07:14.278Z,63.37
2022-11-10T22:10:03.176Z,61.48
2022-11-10T22:12:51.108Z,61.01
2022-11-10T22:15:39.670Z,60.71
2022-11-10T22:18:37.164Z,62.96
2022-11-10T22:21:08.161Z,62.52
2022-11-10T22:24:05.101Z,60.84
2022-11-10T22:26:39.233Z,60.77
2022-11-10T22:29:08.458Z,59.67
2022-11-10T22:31:39.183Z,60.76
2022-11-10T22:34:09.478Z,64.21
2022-11-10T22:36:40.144Z,63.35
2022-11-10T22:39:11.809Z,61.15
2022-11-10T22:41:58.897Z,58.49
2022-11-10T22:44:28.596Z,60.33
2022-11-10T22:46:56.613Z,62.83
2022-11-10T22:49:28.173Z,64.93
2022-11-10T22:51:58.552Z,62.42
2022-11-10T22:54:27.217Z,60.50
2022-11-10T22:56:56.231Z,58.60
2022-11-10T22:59:25.462Z,58.90
2022-11-10T23:01:53.687Z,62.76
2022-11-10T23:04:21.819Z,62.19
2022-11-10T23:06:50.154Z,59.77
2022-11-10T23:09:21.620Z,58.68
2022-11-10T23:11:49.479Z,59.91
2022-11-10T23:14:18.298Z,63.64
2022-11-10T23:16:46.662Z,62.07
2022-11-10T23:19:15.839Z,60.11
2022-11-10T23:21:45.217Z,59.29
2022-11-10T23:24:14.189Z,61.76
2022-11-10T23:26:43.776Z,63.70
2022-11-10T23:29:14.234Z,61.00
2022-11-10T23:31:43.073Z,56.60
2022-11-10T23:34:10.992Z,55.90
2022-11-10T23:36:41.938Z,59.29
2022-11-10T23:39:10.095Z,63.77
2022-11-10T23:41:38.281Z,61.76
2022-11-10T23:44:08.934Z,58.76
2022-11-10T23:46:38.497Z,57.74
2022-11-10T23:49:08.755Z,61.60
2022-11-10T23:51:36.933Z,64.30
2022-11-10T23:54:13.609Z,61.87
2022-11-10T23:56:42.595Z,57.28
2022-11-10T23:59:10.984Z,58.42
